createdAt,value
2023-04-21T00:03:59.321Z,8.90
2023-04-21T00:09:02.269Z,8.85
2023-04-21T00:14:06.531Z,8.92
2023-04-21T00:19:09.452Z,8.88
2023-04-21T00:24:12.389Z,8.90
2023-04-21T00:29:16.656Z,8.84
2023-04-21T00:34:19.582Z,8.85
2023-04-21T00:39:22.287Z,8.84
2023-04-21T00:44:26.386Z,8.79
2023-04-21T00:49:29.409Z,8.70
2023-04-21T00:54:32.151Z,8.74
2023-04-21T00:59:37.575Z,8.72
2023-04-21T01:04:40.764Z,8.73
2023-04-21T01:09:43.498Z,8.75
2023-04-21T01:14:47.613Z,8.71
2023-04-21T01:19:51.628Z,8.74
2023-04-21T01:24:56.143Z,8.73
2023-04-21T01:29:58.970Z,8.77
2023-04-21T01:35:03.780Z,8.86
2023-04-21T01:40:09.398Z,8.81
2023-04-21T01:45:12.836Z,8.80
2023-04-21T01:50:15.598Z,8.73
2023-04-21T01:55:20.467Z,8.69
2023-04-21T02:00:23.216Z,8.72
2023-04-21T02:05:25.942Z,8.66
2023-04-21T02:10:30.005Z,8.53
2023-04-21T02:15:33.603Z,8.58
2023-04-21T02:20:36.453Z,8.56
2023-04-21T02:25:40.553Z,8.61
2023-04-21T02:30:43.260Z,8.51
2023-04-21T02:35:46.026Z,8.47
2023-04-21T02:40:50.575Z,8.55
2023-04-21T02:45:54.542Z,8.62
2023-04-21T02:50:57.362Z,8.54
2023-04-21T02:56:04.542Z,8.59
2023-04-21T03:01:07.595Z,8.67
2023-04-21T03:06:10.997Z,8.68
2023-04-21T03:11:16.511Z,8.74
2023-04-21T03:16:19.774Z,8.76
2023-04-21T03:21:22.563Z,8.75
2023-04-21T03:26:26.660Z,8.77
2023-04-21T03:31:29.433Z,8.78
2023-04-21T03:36:32.928Z,8.82
2023-04-21T03:41:37.127Z,8.82
2023-04-21T03:46:40.147Z,8.86
2023-04-21T03:51:42.872Z,8.95
2023-04-21T03:56:46.974Z,9.00
2023-04-21T04:01:49.690Z,8.93
2023-04-21T04:06:52.416Z,8.98
2023-04-21T04:11:56.517Z,8.93
2023-04-21T04:16:59.833Z,8.92
2023-04-21T04:22:02.873Z,8.99
2023-04-21T04:27:06.978Z,8.94
2023-04-21T04:32:10.850Z,9.00
2023-04-21T04:37:13.589Z,8.99
2023-04-21T04:42:20.228Z,9.07
2023-04-21T04:47:23.023Z,9.03
2023-04-21T04:52:26.228Z,8.98
2023-04-21T04:57:30.269Z,9.12
2023-04-21T05:02:33.809Z,9.14
2023-04-21T05:07:36.615Z,9.08
2023-04-21T05:12:41.058Z,9.23
2023-04-21T05:17:43.816Z,9.35
2023-04-21T05:22:46.558Z,9.48
2023-04-21T05:27:50.642Z,9.49
2023-04-21T05:32:53.393Z,9.58
2023-04-21T05:37:56.183Z,9.73
2023-04-21T05:43:00.205Z,9.83
2023-04-21T05:48:02.937Z,9.98
2023-04-21T05:53:05.790Z,10.13
2023-04-21T05:58:10.252Z,10.31
2023-04-21T06:03:13.086Z,10.47
2023-04-21T06:08:15.837Z,10.46
2023-04-21T06:13:20.004Z,10.65
2023-04-21T06:18:23.952Z,10.89
2023-04-21T06:23:26.661Z,10.97
2023-04-21T06:28:30.921Z,11.05
2023-04-21T06:33:33.693Z,11.24
2023-04-21T06:38:36.554Z,11.17
2023-04-21T06:43:40.773Z,11.15
2023-04-21T06:48:44.037Z,11.18
2023-04-21T06:53:46.775Z,11.50
2023-04-21T06:58:50.932Z,11.69
2023-04-21T07:03:54.135Z,11.64
2023-04-21T07:08:56.990Z,11.70
2023-04-21T07:14:02.199Z,11.65
2023-04-21T07:19:04.985Z,11.66
2023-04-21T07:24:08.318Z,11.74
2023-04-21T07:29:12.391Z,11.89
2023-04-21T07:34:15.111Z,12.21
2023-04-21T07:39:18.167Z,12.26
2023-04-21T07:44:22.520Z,12.56
2023-04-21T07:49:25.317Z,12.52
2023-04-21T07:54:29.183Z,12.64
2023-04-21T07:59:33.881Z,12.74
2023-04-21T08:04:36.768Z,12.83
2023-04-21T08:09:39.676Z,12.87
2023-04-21T08:14:44.094Z,13.03
2023-04-21T08:19:46.956Z,13.06
2023-04-21T08:24:49.728Z,13.22
2023-04-21T08:29:53.851Z,13.25
2023-04-21T08:34:56.716Z,13.18
2023-04-21T08:39:59.459Z,13.29
2023-04-21T08:45:03.961Z,13.61
2023-04-21T08:50:08.614Z,13.72
2023-04-21T08:55:13.453Z,14.27
2023-04-21T09:00:18.144Z,14.46
2023-04-21T09:05:24.216Z,14.66
2023-04-21T09:10:27.248Z,14.84
2023-04-21T09:15:31.981Z,14.76
2023-04-21T09:20:34.696Z,15.27
2023-04-21T09:25:39.802Z,15.44
2023-04-21T09:30:44.416Z,15.12
2023-04-21T09:35:48.087Z,15.32
2023-04-21T09:40:58.001Z,15.97
2023-04-21T09:46:03.413Z,16.07
2023-04-21T09:56:14.890Z,16.56
2023-04-21T10:01:19.255Z,16.86
2023-04-21T10:06:22.117Z,16.91
2023-04-21T10:11:25.122Z,16.45
2023-04-21T10:16:29.729Z,15.78
2023-04-21T10:21:37.934Z,16.25
2023-04-21T10:26:40.675Z,17.40
2023-04-21T10:31:53.143Z,17.55
2023-04-21T10:37:19.529Z,17.88
2023-04-21T10:42:31.173Z,17.91
2023-04-21T10:47:41.149Z,18.10
2023-04-21T10:52:48.247Z,17.47
2023-04-21T10:57:51.055Z,18.64
2023-04-21T11:02:59.874Z,18.69
2023-04-21T11:08:11.255Z,18.66
2023-04-21T11:13:14.127Z,17.98
2023-04-21T11:18:19.348Z,17.92
2023-04-21T11:23:22.358Z,17.86
2023-04-21T11:28:25.305Z,18.20
2023-04-21T11:33:31.832Z,18.91
2023-04-21T11:38:41.017Z,19.10
2023-04-21T11:43:46.919Z,18.53
2023-04-21T11:48:59.441Z,19.22
2023-04-21T11:54:02.382Z,19.45
2023-04-21T11:59:08.261Z,19.25
2023-04-21T12:04:14.948Z,18.82
2023-04-21T12:09:19.287Z,19.36
2023-04-21T12:14:23.240Z,19.31
2023-04-21T12:19:37.386Z,20.14
2023-04-21T12:24:40.563Z,20.13
2023-04-21T12:29:43.405Z,19.96
2023-04-21T12:34:47.520Z,20.32
2023-04-21T12:39:50.237Z,20.11
2023-04-21T12:44:52.962Z,19.99
2023-04-21T12:49:57.086Z,19.55
2023-04-21T12:54:59.826Z,19.52
2023-04-21T13:00:03.017Z,19.63
2023-04-21T13:05:09.897Z,19.53
2023-04-21T13:10:12.836Z,19.45
2023-04-21T13:15:15.525Z,19.50
2023-04-21T13:20:20.340Z,19.64
2023-04-21T13:25:23.150Z,19.54
2023-04-21T13:30:25.900Z,19.41
2023-04-21T13:35:30.058Z,19.45
2023-04-21T13:40:32.856Z,19.56
2023-04-21T13:45:35.775Z,19.73
2023-04-21T13:50:39.869Z,19.69
2023-04-21T13:55:43.756Z,19.83
2023-04-21T14:00:46.422Z,20.35
2023-04-21T14:05:50.908Z,20.34
2023-04-21T14:10:53.738Z,20.80
2023-04-21T14:15:56.885Z,20.90
2023-04-21T14:21:00.994Z,20.72
2023-04-21T14:26:03.683Z,20.25
2023-04-21T14:31:06.505Z,19.77
2023-04-21T14:36:11.397Z,19.55
2023-04-21T14:41:14.451Z,19.32
2023-04-21T14:46:17.175Z,19.28
2023-04-21T14:51:21.548Z,19.13
2023-04-21T14:56:24.215Z,19.01
2023-04-21T15:01:26.963Z,18.84
2023-04-21T15:06:31.649Z,18.77
2023-04-21T15:11:34.440Z,18.63
2023-04-21T15:16:37.159Z,18.46
2023-04-21T15:21:41.526Z,18.32
2023-04-21T15:26:44.323Z,18.34
2023-04-21T15:31:47.014Z,18.32
2023-04-21T15:36:51.152Z,18.51
2023-04-21T15:41:55.053Z,18.78
2023-04-21T15:46:58.011Z,18.61
2023-04-21T15:52:03.208Z,18.47
2023-04-21T15:57:06.152Z,18.37
2023-04-21T16:02:09.394Z,18.33
2023-04-21T16:07:13.612Z,18.37
2023-04-21T16:12:16.427Z,18.45
2023-04-21T16:17:19.154Z,18.46
2023-04-21T16:22:23.396Z,18.31
2023-04-21T16:27:26.288Z,18.18
2023-04-21T16:32:29.137Z,18.10
2023-04-21T16:37:33.198Z,17.99
2023-04-21T16:42:36.162Z,17.80
2023-04-21T16:47:42.059Z,17.78
2023-04-21T16:52:46.472Z,17.72
2023-04-21T16:57:49.233Z,17.77
2023-04-21T17:02:52.131Z,17.95
2023-04-21T17:07:56.442Z,18.10
2023-04-21T17:12:59.184Z,18.09
2023-04-21T17:18:02.225Z,18.11
2023-04-21T17:23:06.363Z,17.94
2023-04-21T17:28:09.210Z,17.78
2023-04-21T17:33:16.813Z,17.67
2023-04-21T17:38:21.772Z,17.56
2023-04-21T17:43:24.618Z,17.40
2023-04-21T17:48:27.402Z,17.32
2023-04-21T17:53:31.993Z,17.21
2023-04-21T17:58:35.162Z,17.10
2023-04-21T18:03:41.078Z,16.97
2023-04-21T18:08:45.418Z,16.89
2023-04-21T18:13:48.158Z,16.80
2023-04-21T18:18:50.898Z,16.74
2023-04-21T18:23:54.974Z,16.75
2023-04-21T18:28:58.298Z,16.78
2023-04-21T18:34:01.091Z,16.40
2023-04-21T18:39:05.227Z,16.38
2023-04-21T18:44:07.909Z,16.33
2023-04-21T18:49:10.580Z,16.20
2023-04-21T18:54:14.620Z,16.18
2023-04-21T18:59:17.500Z,16.14
2023-04-21T19:04:20.400Z,15.70
2023-04-21T19:09:24.719Z,15.55
2023-04-21T19:14:28.302Z,15.46
2023-04-21T19:19:31.774Z,15.42
2023-04-21T19:24:36.176Z,15.37
2023-04-21T19:29:39.174Z,15.32
2023-04-21T19:34:41.843Z,14.98
2023-04-21T19:39:45.959Z,14.85
2023-04-21T19:44:48.626Z,14.96
2023-04-21T19:49:51.300Z,14.81
2023-04-21T19:54:55.572Z,14.94
2023-04-21T19:59:58.255Z,14.86
2023-04-21T20:05:00.954Z,14.81
2023-04-21T20:10:06.995Z,14.44
2023-04-21T20:15:11.833Z,13.94
2023-04-21T20:20:14.621Z,14.09
2023-04-21T20:25:19.272Z,14.29
2023-04-21T20:30:22.246Z,14.23
2023-04-21T20:35:24.979Z,14.27
2023-04-21T20:40:30.061Z,14.14
2023-04-21T20:45:33.464Z,13.84
2023-04-21T20:50:36.195Z,14.00
2023-04-21T20:55:40.423Z,13.84
2023-04-21T21:00:43.241Z,13.88
2023-04-21T21:05:46.095Z,13.60
2023-04-21T21:10:50.182Z,13.72
2023-04-21T21:15:52.925Z,13.90
2023-04-21T21:20:55.618Z,13.62
2023-04-21T21:26:00.147Z,13.49
2023-04-21T21:31:02.817Z,13.48
2023-04-21T21:36:06.287Z,13.51
2023-04-21T21:41:12.161Z,13.24
2023-04-21T21:46:14.991Z,13.21
2023-04-21T21:51:18.035Z,13.28
2023-04-21T21:56:23.888Z,13.31
2023-04-21T22:01:26.989Z,13.17
2023-04-21T22:06:29.725Z,13.20
2023-04-21T22:11:33.881Z,13.04
2023-04-21T22:16:37.662Z,12.90
2023-04-21T22:21:40.364Z,12.95
2023-04-21T22:26:44.844Z,13.01
2023-04-21T22:31:48.019Z,13.04
2023-04-21T22:36:51.998Z,13.01
2023-04-21T22:41:57.255Z,12.83
2023-04-21T22:47:00.424Z,12.61
2023-04-21T22:52:03.738Z,12.65
2023-04-21T22:57:07.951Z,12.91
2023-04-21T23:02:11.443Z,12.85
2023-04-21T23:07:14.060Z,12.89
2023-04-21T23:12:18.042Z,12.87
2023-04-21T23:17:21.389Z,12.82
2023-04-21T23:22:26.076Z,12.75
2023-04-21T23:27:30.347Z,12.79
2023-04-21T23:32:33.122Z,12.75
2023-04-21T23:37:35.990Z,12.67
2023-04-21T23:42:40.151Z,12.50
2023-04-21T23:47:42.928Z,12.36
2023-04-21T23:52:45.633Z,12.49
2023-04-21T23:57:49.680Z,12.46
